Time;durP1;ratioP1;P1;durP2;ratioP2;P2;SDS_P1;SDS_P2;PMS_P1;PMS_P2;Temp;Humidity;BMP_temperature;BMP_pressure;BME280_temperature;BME280_humidity;BME280_pressure;Samples;Min_cycle;Max_cycle;Signal;HPM_P1;HPM_P2
2023/07/12 00:00:30;;;;;;;4.40;4.00;;;19.50;99.90;;;19.74;100.00;97638.41;10312207;28;20241;-68
2023/07/12 00:05:33;;;;;;;4.97;4.05;;;19.30;99.90;;;19.80;100.00;97673.91;10310709;28;20227;-68
2023/07/12 00:10:37;;;;;;;4.40;3.90;;;19.30;99.90;;;20.23;100.00;97736.91;10313889;28;20315;-70
2023/07/12 00:15:42;;;;;;;3.85;3.55;;;19.70;99.90;;;20.31;100.00;97739.66;10308400;28;20226;-68
2023/07/12 00:20:47;;;;;;;4.15;3.70;;;19.70;99.90;;;20.24;100.00;97734.38;10314944;28;20326;-68
2023/07/12 00:25:50;;;;;;;3.65;3.35;;;19.60;99.90;;;20.29;100.00;97720.56;10308076;28;20315;-68
2023/07/12 00:30:57;;;;;;;3.67;3.28;;;19.60;99.90;;;20.28;100.00;97698.06;10278996;28;20231;-68
2023/07/12 00:36:00;;;;;;;3.53;3.22;;;19.60;99.90;;;20.09;100.00;97692.59;10303072;28;20227;-68
2023/07/12 00:41:15;;;;;;;3.38;3.05;;;19.50;99.90;;;19.96;100.00;97670.75;10298820;28;20231;-69
2023/07/12 00:46:27;;;;;;;3.38;3.03;;;19.40;99.90;;;19.93;100.00;97636.09;10300738;28;20324;-69
2023/07/12 00:51:45;;;;;;;3.63;3.30;;;19.40;99.90;;;19.81;100.00;97623.78;10275288;28;20227;-69
2023/07/12 00:56:48;;;;;;;3.35;3.00;;;19.30;99.90;;;19.74;100.00;97617.66;10275863;28;20306;-68
2023/07/12 01:01:58;;;;;;;4.10;3.70;;;19.20;99.90;;;19.73;100.00;97584.75;10269378;28;20232;-69
2023/07/12 01:07:02;;;;;;;3.30;3.05;;;19.20;99.90;;;19.82;100.00;97616.88;10278758;28;20589;-68
2023/07/12 01:12:07;;;;;;;3.63;3.33;;;19.30;99.90;;;19.94;100.00;97604.97;10277870;28;20234;-69
2023/07/12 01:17:11;;;;;;;4.75;2.85;;;19.30;99.90;;;20.14;100.00;97588.84;10272927;28;20703;-69
2023/07/12 01:22:16;;;;;;;3.60;3.13;;;19.50;99.90;;;20.11;100.00;97613.03;10278687;28;20658;-69
2023/07/12 01:27:24;;;;;;;4.72;3.20;;;19.50;99.90;;;20.14;100.00;97602.69;10278248;28;20236;-70
2023/07/12 01:32:28;;;;;;;3.42;2.88;;;19.60;99.90;;;20.33;100.00;97593.47;10282149;28;20231;-69
2023/07/12 01:37:33;;;;;;;3.38;3.00;;;19.60;99.90;;;20.54;100.00;97566.94;10280224;28;20223;-69
2023/07/12 01:42:36;;;;;;;3.50;3.20;;;19.80;99.90;;;20.22;100.00;97522.34;10281999;28;20299;-69
2023/07/12 01:47:39;;;;;;;3.42;2.78;;;19.70;99.90;;;20.13;100.00;97494.56;10277407;28;20246;-69
2023/07/12 01:52:44;;;;;;;3.85;3.50;;;19.60;99.90;;;20.09;100.00;97487.59;10280017;28;20584;-69
2023/07/12 01:57:47;;;;;;;3.38;3.08;;;19.50;99.90;;;19.89;100.00;97507.19;10280505;28;20712;-69
2023/07/12 02:02:50;;;;;;;4.15;3.65;;;19.40;99.90;;;20.03;100.00;97531.63;10280763;28;20238;-69
2023/07/12 02:07:56;;;;;;;4.93;3.65;;;19.50;99.90;;;20.15;100.00;97459.13;10277850;28;20246;-69
2023/07/12 02:12:59;;;;;;;4.22;3.75;;;19.60;99.90;;;19.89;100.00;97437.16;10275260;28;21024;-68
2023/07/12 02:18:04;;;;;;;4.03;3.63;;;19.40;99.90;;;19.92;100.00;97426.81;10279403;28;20865;-73
2023/07/12 02:23:09;;;;;;;5.15;3.85;;;19.40;99.90;;;20.04;100.00;97439.94;10278253;28;20243;-68
2023/07/12 02:28:12;;;;;;;4.68;4.05;;;19.60;99.90;;;20.07;100.00;97460.75;10278983;28;20241;-68
2023/07/12 02:33:15;;;;;;;5.45;4.35;;;19.50;99.90;;;19.94;100.00;97464.00;10275508;28;20223;-68
2023/07/12 02:38:20;;;;;;;5.60;4.40;;;19.40;99.90;;;19.67;100.00;97457.59;10307949;28;20233;-69
2023/07/12 02:43:23;;;;;;;4.45;4.05;;;19.20;99.90;;;19.63;100.00;97452.28;10316971;28;20934;-69
2023/07/12 02:48:26;;;;;;;4.72;4.22;;;19.10;99.90;;;19.64;100.00;97467.88;10302250;28;20242;-69
2023/07/12 02:53:31;;;;;;;4.07;3.67;;;19.10;99.90;;;19.56;100.00;97462.56;10323978;28;20231;-69
2023/07/12 02:58:34;;;;;;;4.97;4.40;;;19.00;99.90;;;19.67;100.00;97473.16;10321041;28;20230;-69
2023/07/12 03:03:37;;;;;;;5.40;4.15;;;19.20;99.90;;;19.61;100.00;97464.38;10317796;28;20613;-69
2023/07/12 03:08:41;;;;;;;4.88;4.43;;;19.10;99.90;;;19.66;100.00;97463.63;10313589;28;20226;-69
2023/07/12 03:13:46;;;;;;;4.82;4.43;;;19.10;99.90;;;19.72;100.00;97461.13;10303653;28;20290;-69
2023/07/12 03:18:50;;;;;;;5.32;4.35;;;19.10;99.90;;;19.71;100.00;97472.31;10279517;28;20739;-69
2023/07/12 03:23:54;;;;;;;4.88;4.38;;;19.10;99.90;;;19.63;100.00;97462.66;10270997;28;20259;-69
2023/07/12 03:28:58;;;;;;;3.90;3.60;;;18.90;99.90;;;19.30;100.00;97485.50;10279293;28;20232;-70
2023/07/12 03:34:01;;;;;;;4.03;3.60;;;18.60;99.90;;;19.07;100.00;97487.69;10272902;28;20243;-69
2023/07/12 03:39:06;;;;;;;4.38;3.97;;;18.40;99.90;;;19.23;100.00;97482.75;10282884;28;20302;-68
2023/07/12 03:44:09;;;;;;;5.03;4.50;;;18.60;99.90;;;19.33;100.00;97485.53;10298651;28;20690;-69
2023/07/12 03:49:12;;;;;;;5.00;4.45;;;18.70;99.90;;;19.45;100.00;97494.38;10294068;28;20342;-69
2023/07/12 03:54:17;;;;;;;5.90;4.93;;;18.70;99.90;;;19.43;100.00;97496.94;10279999;28;20228;-68
2023/07/12 03:59:20;;;;;;;5.72;4.95;;;18.70;99.90;;;19.58;100.00;97532.63;10277961;28;20709;-69
2023/07/12 04:04:23;;;;;;;7.85;5.97;;;18.90;99.90;;;19.72;100.00;97531.16;10272180;28;20710;-69
2023/07/12 04:09:28;;;;;;;6.15;5.50;;;19.00;99.90;;;19.86;100.00;97522.69;10269552;28;20235;-70
2023/07/12 04:14:31;;;;;;;6.82;6.22;;;19.00;99.90;;;19.90;100.00;97507.19;10274250;28;20786;-69
2023/07/12 04:19:34;;;;;;;5.47;5.00;;;19.10;99.90;;;19.89;100.00;97507.19;10273002;28;20772;-69
2023/07/12 04:24:39;;;;;;;5.10;4.70;;;19.00;99.90;;;19.94;100.00;97527.13;10292812;28;20229;-68
2023/07/12 04:29:42;;;;;;;5.22;4.72;;;19.20;99.90;;;20.05;100.00;97539.41;10285639;28;20224;-67
2023/07/12 04:34:47;;;;;;;6.25;5.65;;;19.20;99.90;;;20.07;100.00;97528.22;10268289;28;20232;-68
2023/07/12 04:39:52;;;;;;;6.03;5.40;;;19.30;99.90;;;20.02;100.00;97498.72;10277595;28;20228;-67
2023/07/12 04:44:55;;;;;;;5.95;5.45;;;19.20;99.90;;;20.13;100.00;97507.53;10281169;28;20544;-68
2023/07/12 04:49:58;;;;;;;7.38;5.43;;;19.20;99.90;;;20.23;100.00;97522.38;10278660;28;20283;-67
2023/07/12 04:55:05;;;;;;;4.82;4.43;;;19.30;99.90;;;20.21;100.00;97529.28;10284709;28;20255;-68
2023/07/12 05:00:13;;;;;;;6.90;5.05;;;19.30;99.90;;;20.03;100.00;97536.81;10268543;28;20661;-68
2023/07/12 05:05:17;;;;;;;5.25;4.80;;;19.40;99.90;;;20.86;100.00;97536.19;10272766;28;20366;-68
2023/07/12 05:10:22;;;;;;;4.70;4.32;;;19.80;99.90;;;21.06;100.00;97536.41;10282836;28;20632;-69
2023/07/12 05:15:25;;;;;;;6.55;4.68;;;20.10;99.90;;;21.02;100.00;97542.41;10280124;28;20224;-68
2023/07/12 05:20:28;;;;;;;6.07;5.07;;;20.00;99.90;;;20.73;100.00;97556.78;10278949;28;20231;-68
2023/07/12 05:25:33;;;;;;;8.27;5.18;;;19.80;99.90;;;20.77;100.00;97579.34;10279743;28;20236;-68
2023/07/12 05:30:36;;;;;;;5.30;4.70;;;19.90;99.90;;;20.73;100.00;97577.56;10278097;28;20232;-68
2023/07/12 05:35:39;;;;;;;6.00;5.50;;;19.90;99.90;;;20.68;100.00;97573.19;10281470;28;20224;-68
2023/07/12 05:40:44;;;;;;;5.93;5.32;;;19.80;99.90;;;20.81;100.00;97581.16;10280327;28;20311;-67
2023/07/12 05:45:47;;;;;;;5.78;5.18;;;19.90;99.90;;;20.94;100.00;97588.22;10282826;28;20242;-67
2023/07/12 05:50:52;;;;;;;6.38;5.32;;;20.10;99.90;;;21.02;100.00;97591.78;10277181;28;20242;-67
2023/07/12 05:55:57;;;;;;;5.95;5.30;;;20.20;99.90;;;21.12;100.00;97588.44;10282262;28;20240;-67
2023/07/12 06:01:03;;;;;;;7.07;6.38;;;20.20;99.90;;;21.07;100.00;97571.91;10271130;28;20405;-67
2023/07/12 06:06:08;;;;;;;8.30;6.00;;;20.20;99.90;;;21.24;100.00;97581.63;10281520;28;20228;-68
2023/07/12 06:11:13;;;;;;;6.22;5.63;;;20.40;99.90;;;21.22;100.00;97585.94;10280323;28;20239;-67
2023/07/12 06:16:16;;;;;;;6.10;5.35;;;20.30;99.90;;;21.24;100.00;97585.09;10281182;28;20234;-67
2023/07/12 06:21:20;;;;;;;5.57;5.07;;;20.40;99.90;;;21.22;100.00;97589.41;10269639;28;20238;-68
2023/07/12 06:26:24;;;;;;;6.43;5.40;;;20.50;99.90;;;21.61;100.00;97587.22;10275405;28;20723;-66
2023/07/12 06:31:27;;;;;;;6.20;5.38;;;20.80;99.90;;;21.89;100.00;97584.00;10265973;28;20235;-68
2023/07/12 06:36:33;;;;;;;6.13;5.35;;;21.10;99.90;;;21.96;100.00;97593.56;10273435;28;20227;-66
2023/07/12 06:41:37;;;;;;;7.20;5.07;;;21.30;99.90;;;22.37;100.00;97595.63;10274690;28;20322;-68
2023/07/12 06:46:41;;;;;;;6.00;5.40;;;21.50;99.90;;;22.63;100.00;97584.47;10277861;28;20234;-67
2023/07/12 06:51:46;;;;;;;6.80;5.38;;;21.70;99.90;;;22.82;100.00;97596.72;10353328;23;20262;-66
2023/07/12 06:56:50;;;;;;;5.55;5.03;;;21.90;99.90;;;22.97;100.00;97610.72;10343242;28;20223;-67
2023/07/12 07:01:54;;;;;;;7.03;5.47;;;22.00;99.90;;;23.05;100.00;97615.09;10324195;28;20675;-67
2023/07/12 07:06:57;;;;;;;6.22;5.63;;;22.10;99.90;;;22.90;100.00;97610.66;10314047;28;20235;-68
2023/07/12 07:12:02;;;;;;;6.88;5.45;;;22.00;99.90;;;22.89;100.00;97623.69;10311548;28;20305;-67
2023/07/12 07:17:10;;;;;;;6.80;5.55;;;22.00;99.90;;;22.97;100.00;97623.75;10323853;28;20278;-67
2023/07/12 07:22:13;;;;;;;8.68;5.78;;;22.20;99.90;;;24.40;100.00;97627.44;10306454;28;20231;-68
2023/07/12 07:27:19;;;;;;;8.95;5.40;;;23.60;99.90;;;25.39;94.73;97629.78;10321636;28;20231;-68
2023/07/12 07:32:22;;;;;;;9.13;5.55;;;24.50;99.90;;;26.33;85.86;97626.50;10321542;28;20265;-68
2023/07/12 07:37:26;;;;;;;7.15;5.43;;;25.20;99.90;;;27.13;81.04;97631.78;10314867;28;20226;-68
2023/07/12 07:42:30;;;;;;;7.78;5.30;;;26.20;99.90;;;28.20;72.34;97637.25;10319057;28;20241;-68
2023/07/12 07:47:34;;;;;;;7.82;5.03;;;27.20;99.90;;;28.61;66.04;97622.53;10323470;28;20601;-68
2023/07/12 07:52:37;;;;;;;8.10;5.03;;;27.60;99.90;;;28.66;67.65;97625.94;10320106;28;20253;-68
2023/07/12 07:57:42;;;;;;;6.53;5.32;;;27.10;99.90;;;28.93;67.80;97642.97;10327640;28;20237;-68
2023/07/12 08:02:46;;;;;;;5.50;5.00;;;27.20;99.90;;;29.30;65.08;97644.00;10308371;28;20241;-68
2023/07/12 08:07:50;;;;;;;7.60;5.18;;;27.70;99.90;;;29.15;63.48;97634.66;10316819;28;20649;-68
2023/07/12 08:12:56;;;;;;;5.90;5.30;;;27.50;99.90;;;29.97;61.07;97631.97;10330260;28;20764;-68
2023/07/12 08:18:00;;;;;;;7.25;4.65;;;28.20;99.90;;;30.45;57.80;97623.75;10322701;28;20230;-68
2023/07/12 08:23:03;;;;;;;5.60;4.93;;;28.50;99.90;;;30.72;55.29;97622.13;10326386;28;20238;-68
2023/07/12 08:28:08;;;;;;;5.95;5.28;;;29.00;99.90;;;30.80;55.60;97624.59;10327692;28;20625;-69
2023/07/12 08:33:11;;;;;;;6.40;5.40;;;29.10;99.90;;;30.91;54.22;97627.81;10331686;28;20309;-68
2023/07/12 08:38:15;;;;;;;6.63;4.72;;;29.40;99.90;;;30.85;54.44;97638.56;10338662;28;20258;-68
2023/07/12 08:43:22;;;;;;;6.45;4.95;;;29.90;99.90;;;30.89;54.29;97636.69;10338617;28;20237;-68
2023/07/12 08:48:26;;;;;;;5.20;4.45;;;29.70;99.90;;;31.13;52.23;97654.44;10331280;28;20309;-68
2023/07/12 08:53:31;;;;;;;6.80;4.50;;;30.00;99.90;;;31.06;50.66;97652.06;10311835;28;20358;-68
2023/07/12 08:58:43;;;;;;;5.03;4.25;;;29.90;99.90;;;31.08;51.19;97651.09;10327246;28;20262;-68
2023/07/12 09:03:46;;;;;;;6.72;4.38;;;30.10;99.90;;;31.14;47.49;97643.00;10318127;28;20247;-68
2023/07/12 09:08:53;;;;;;;7.78;4.50;;;30.30;96.80;;;30.76;50.48;97651.94;10332121;28;20234;-68
2023/07/12 09:13:59;;;;;;;4.97;4.47;;;29.80;99.30;;;30.64;50.85;97644.38;10323944;28;20603;-69
2023/07/12 09:19:14;;;;;;;4.72;4.20;;;29.80;99.20;;;30.56;49.91;97648.97;10329129;28;20273;-68
2023/07/12 09:24:24;;;;;;;4.88;4.25;;;29.40;98.70;;;30.22;52.34;97647.22;10330216;28;20697;-68
2023/07/12 09:29:28;;;;;;;4.95;3.70;;;29.10;99.90;;;30.06;49.74;97647.56;10330609;28;20234;-68
2023/07/12 09:34:38;;;;;;;4.47;4.07;;;28.90;98.60;;;29.96;51.31;97646.06;10332413;28;20618;-68
2023/07/12 09:39:41;;;;;;;5.13;4.28;;;28.50;99.70;;;30.06;51.07;97626.47;10332775;28;20635;-68
2023/07/12 09:44:48;;;;;;;5.07;4.47;;;28.70;99.60;;;30.56;50.55;97627.88;10329691;28;20246;-69
2023/07/12 09:49:59;;;;;;;4.95;4.40;;;29.60;98.50;;;30.54;48.57;97612.09;10330101;28;20321;-68
2023/07/12 09:55:06;;;;;;;5.15;3.97;;;29.60;97.10;;;30.87;48.46;97606.81;10332425;28;20330;-68
2023/07/12 10:00:21;;;;;;;4.70;4.25;;;30.10;96.50;;;30.78;48.74;97599.97;10328941;28;20354;-68
2023/07/12 10:05:25;;;;;;;5.38;3.97;;;29.90;96.40;;;31.02;47.36;97597.56;10319833;28;20241;-68
2023/07/12 10:10:38;;;;;;;5.57;4.30;;;30.30;95.60;;;30.67;47.81;97594.13;10303028;28;20265;-68
2023/07/12 10:15:44;;;;;;;5.03;4.50;;;29.60;95.50;;;30.75;48.07;97600.94;10298933;28;20227;-68
2023/07/12 10:20:48;;;;;;;4.90;4.32;;;29.60;96.50;;;30.53;48.32;97595.41;10302260;28;20241;-68
2023/07/12 10:25:57;;;;;;;5.78;4.60;;;29.50;96.20;;;30.50;49.36;97598.13;10308220;28;20245;-68
2023/07/12 10:31:10;;;;;;;5.20;4.18;;;29.50;96.90;;;30.46;47.01;97599.09;10304853;28;20321;-69
2023/07/12 10:36:19;;;;;;;4.97;4.13;;;29.80;94.00;;;30.32;47.81;97600.38;10316207;28;20222;-67
2023/07/12 10:41:30;;;;;;;5.15;4.50;;;29.60;95.00;;;30.61;48.75;97597.81;10312388;28;20250;-68
2023/07/12 10:46:39;;;;;;;4.60;3.88;;;29.80;95.90;;;31.37;44.21;97600.09;10330689;28;20247;-68
2023/07/12 10:51:46;;;;;;;4.70;4.30;;;30.60;93.20;;;31.65;41.30;97591.31;10304452;28;20241;-69
2023/07/12 10:56:54;;;;;;;4.38;3.97;;;31.00;89.50;;;31.64;40.69;97584.28;10315166;28;20228;-67
2023/07/12 11:02:20;;;;;;;4.68;4.18;;;31.00;88.90;;;31.72;40.96;97574.31;10310976;28;20615;-69
2023/07/12 11:07:37;;;;;;;4.82;4.40;;;31.10;87.70;;;31.66;39.54;97574.53;10293656;28;20254;-68
2023/07/12 11:12:48;;;;;;;4.68;4.20;;;30.80;86.10;;;31.36;41.94;97576.34;10309775;28;20246;-69
2023/07/12 11:18:22;;;;;;;4.93;4.15;;;30.50;89.80;;;30.81;43.59;97573.53;10309542;28;20245;-68
2023/07/12 11:23:32;;;;;;;3.60;3.30;;;29.90;90.80;;;30.65;45.11;97574.88;10314966;28;20218;-69
2023/07/12 11:28:42;;;;;;;4.40;3.92;;;29.90;91.50;;;31.16;43.64;97571.63;10314878;28;20250;-69
2023/07/12 11:33:52;;;;;;;4.50;4.10;;;30.20;91.00;;;30.84;43.31;97578.72;10313075;28;20266;-69
2023/07/12 11:38:56;;;;;;;5.35;3.85;;;29.90;90.80;;;30.34;45.46;97562.50;10312901;28;20725;-68
2023/07/12 11:44:02;;;;;;;5.22;3.67;;;29.30;92.90;;;30.26;45.67;97569.75;10320389;28;20226;-69
2023/07/12 11:49:15;;;;;;;4.57;3.88;;;29.30;92.40;;;30.25;43.91;97568.88;10309556;28;20238;-69
2023/07/12 11:54:22;;;;;;;4.40;4.00;;;29.20;90.90;;;30.20;44.10;97567.25;10302908;28;20229;-69
2023/07/12 11:59:29;;;;;;;5.43;3.92;;;29.20;91.20;;;29.98;45.09;97559.88;10323043;28;20350;-69
2023/07/12 12:04:35;;;;;;;5.00;4.50;;;29.00;92.00;;;30.27;43.46;97553.88;10317282;28;20243;-68
2023/07/12 12:09:39;;;;;;;5.63;4.63;;;29.50;90.70;;;30.33;43.23;97550.19;10318177;28;20235;-68
2023/07/12 12:14:43;;;;;;;4.93;4.38;;;29.60;89.60;;;30.22;42.04;97528.56;10325210;28;20313;-69
2023/07/12 12:19:51;;;;;;;4.72;4.30;;;29.50;87.80;;;30.60;41.43;97516.94;10311007;28;20558;-68
2023/07/12 12:24:57;;;;;;;5.22;4.65;;;29.90;87.20;;;30.90;40.14;97498.47;10315690;28;20317;-68
2023/07/12 12:30:18;;;;;;;5.10;4.30;;;30.40;84.50;;;30.69;40.43;97511.38;10316062;28;20238;-69
2023/07/12 12:35:22;;;;;;;5.32;4.82;;;30.20;84.00;;;30.56;41.15;97519.69;10312954;28;20215;-68
2023/07/12 12:40:27;;;;;;;6.03;5.00;;;29.90;85.30;;;30.68;41.06;97524.63;10305456;28;20259;-67
2023/07/12 12:45:34;;;;;;;4.57;4.15;;;29.90;86.20;;;31.19;40.37;97508.16;10307691;28;20274;-67
2023/07/12 12:50:39;;;;;;;6.63;4.38;;;30.30;85.00;;;31.05;41.19;97518.28;10360476;22;20228;-70
2023/07/12 12:55:48;;;;;;;4.45;3.92;;;30.20;86.20;;;30.41;41.54;97511.28;10361808;28;20233;-69
2023/07/12 13:00:54;;;;;;;5.18;4.45;;;29.60;86.00;;;30.59;41.46;97509.94;10405202;28;20235;-67
2023/07/12 13:06:02;;;;;;;5.13;4.25;;;29.70;86.40;;;30.87;41.57;97515.28;10451815;28;20256;-67
2023/07/12 13:11:05;;;;;;;4.65;4.25;;;29.80;87.90;;;30.61;41.92;97517.78;10458974;28;20286;-68
2023/07/12 13:16:17;;;;;;;5.43;4.25;;;29.80;87.20;;;30.41;41.92;97507.78;10452740;28;20228;-67
2023/07/12 13:21:25;;;;;;;5.15;4.65;;;29.60;86.10;;;30.46;41.87;97488.28;10459261;28;20231;-67
2023/07/12 13:26:29;;;;;;;5.90;4.50;;;29.50;86.80;;;30.91;40.58;97481.75;10461674;28;20281;-67
2023/07/12 13:31:32;;;;;;;4.43;3.97;;;30.00;85.80;;;30.90;41.39;97482.63;10456665;28;20284;-69
2023/07/12 13:36:37;;;;;;;4.70;4.30;;;30.00;85.90;;;30.26;41.47;97493.28;10452272;28;20243;-70
2023/07/12 13:41:40;;;;;;;4.53;4.10;;;29.40;85.70;;;30.44;41.82;97489.25;10453186;28;20612;-67
2023/07/12 13:46:46;;;;;;;5.97;4.45;;;29.40;86.80;;;30.47;41.66;97497.94;10459918;28;20310;-67
2023/07/12 13:51:50;;;;;;;4.30;3.97;;;29.50;86.00;;;30.61;42.32;97509.88;10461790;28;20314;-67
2023/07/12 13:56:54;;;;;;;6.43;4.53;;;29.70;87.80;;;30.55;41.71;97496.84;10454729;28;20234;-67
2023/07/12 14:01:58;;;;;;;4.88;4.38;;;29.60;86.10;;;30.76;42.92;97509.41;10446034;28;20321;-67
2023/07/12 14:07:25;;;;;;;5.05;4.47;;;29.70;88.00;;;30.53;42.29;97521.53;10438844;28;20229;-67
2023/07/12 14:12:32;;;;;;;5.05;4.55;;;29.60;86.90;;;30.52;41.46;97527.69;10461377;28;20226;-67
2023/07/12 14:17:35;;;;;;;4.72;4.32;;;29.60;85.20;;;30.49;42.39;97508.44;10465637;28;20251;-68
2023/07/12 14:22:39;;;;;;;4.90;4.40;;;29.60;87.10;;;30.44;41.77;97503.28;10444774;28;20221;-67
2023/07/12 14:27:43;;;;;;;4.55;4.07;;;29.60;85.90;;;30.53;41.82;97505.69;10444297;28;20240;-68
2023/07/12 14:32:46;;;;;;;5.07;4.30;;;29.70;85.90;;;30.81;40.81;97520.75;10441444;28;20227;-68
2023/07/12 14:37:54;;;;;;;5.22;4.60;;;29.90;84.80;;;30.66;40.91;97526.44;10442023;28;20238;-68
2023/07/12 14:42:58;;;;;;;5.15;4.65;;;29.80;85.20;;;30.50;41.83;97518.97;10431161;28;20220;-68
2023/07/12 14:48:03;;;;;;;4.63;4.18;;;29.60;85.50;;;30.83;41.78;97531.28;10419893;28;20236;-68
2023/07/12 14:53:12;;;;;;;5.22;4.25;;;29.90;86.20;;;30.86;42.18;97534.69;10423370;28;20693;-68
2023/07/12 14:58:17;;;;;;;4.38;3.97;;;30.00;86.40;;;30.78;41.64;97554.25;10423850;28;20229;-68
2023/07/12 15:03:25;;;;;;;5.35;4.10;;;29.90;85.90;;;30.33;42.65;97542.28;10424230;28;21046;-68
2023/07/12 15:08:32;;;;;;;4.60;3.90;;;29.50;86.40;;;30.17;42.81;97530.41;10423144;28;20235;-67
2023/07/12 15:13:35;;;;;;;4.65;3.83;;;29.20;87.10;;;29.91;42.80;97520.56;10444331;28;20233;-68
2023/07/12 15:18:39;;;;;;;4.32;3.92;;;29.00;87.40;;;30.09;44.08;97527.97;10428286;28;20231;-68
2023/07/12 15:23:43;;;;;;;4.75;4.18;;;29.10;89.60;;;30.26;43.27;97538.09;10431201;28;20231;-67
2023/07/12 15:28:47;;;;;;;4.35;3.95;;;29.30;88.10;;;29.78;44.00;97541.94;10440564;28;20298;-67
2023/07/12 15:33:52;;;;;;;5.28;4.40;;;29.00;89.40;;;29.64;44.15;97544.91;10444169;28;20758;-69
2023/07/12 15:38:57;;;;;;;4.95;3.88;;;28.80;88.60;;;29.62;42.65;97532.66;10437123;28;20229;-67
2023/07/12 15:44:00;;;;;;;4.70;3.85;;;28.70;87.20;;;29.14;45.26;97541.66;10455139;28;20268;-67
2023/07/12 15:49:05;;;;;;;4.65;3.58;;;28.30;90.20;;;29.15;44.64;97550.41;10444850;28;20274;-66
2023/07/12 15:54:16;;;;;;;6.22;4.40;;;28.20;89.50;;;28.88;44.52;97562.38;10430041;28;20603;-68
2023/07/12 15:59:26;;;;;;;5.95;5.35;;;28.00;88.30;;;29.10;44.14;97558.44;10449117;28;20644;-67
2023/07/12 16:04:29;;;;;;;6.13;5.53;;;28.10;89.20;;;29.04;44.29;97555.03;10441952;28;20221;-68
2023/07/12 16:09:35;;;;;;;13.35;12.05;;;28.00;89.20;;;28.90;44.77;97544.78;10440962;28;20236;-68
2023/07/12 16:14:40;;;;;;;7.90;7.10;;;28.00;89.70;;;29.13;43.03;97553.09;10456911;28;20745;-68
2023/07/12 16:19:43;;;;;;;8.07;7.35;;;28.10;87.50;;;29.04;43.40;97544.50;10429326;28;20723;-68
2023/07/12 16:24:48;;;;;;;9.68;8.77;;;28.00;88.20;;;29.23;44.20;97543.22;10445610;28;20416;-68
2023/07/12 16:29:52;;;;;;;4.10;3.70;;;28.20;89.70;;;29.08;44.38;97554.97;10439400;28;20352;-67
2023/07/12 16:34:55;;;;;;;6.03;4.93;;;28.00;88.60;;;28.83;44.25;97561.59;10441771;28;20307;-66
2023/07/12 16:40:00;;;;;;;5.85;5.30;;;27.80;89.10;;;28.91;44.42;97551.78;10445990;28;20247;-66
2023/07/12 16:45:04;;;;;;;4.72;4.00;;;27.90;89.60;;;28.72;44.68;97531.09;10449310;28;20224;-66
2023/07/12 16:50:09;;;;;;;3.90;3.45;;;27.80;90.40;;;28.54;45.46;97556.94;10441810;28;20771;-66
2023/07/12 16:55:19;;;;;;;7.15;4.72;;;27.60;90.10;;;28.35;44.42;97556.38;10450277;28;20648;-65
2023/07/12 17:00:22;;;;;;;3.30;3.00;;;27.30;88.50;;;28.29;44.84;97563.47;10445522;28;20236;-68
2023/07/12 17:05:26;;;;;;;3.97;3.58;;;27.30;89.90;;;28.18;45.45;97560.16;10438027;28;20227;-66
2023/07/12 17:10:32;;;;;;;3.40;3.10;;;27.10;89.90;;;28.10;46.19;97550.69;10436290;28;20524;-67
2023/07/12 17:15:35;;;;;;;4.68;3.22;;;27.10;90.40;;;27.90;45.45;97535.28;10440134;28;20220;-66
2023/07/12 17:20:39;;;;;;;3.65;3.33;;;26.90;89.70;;;27.82;45.28;97546.78;10439159;28;20271;-68
2023/07/12 17:25:44;;;;;;;4.60;2.90;;;26.90;90.00;;;27.67;45.52;97570.66;10442382;28;20235;-68
2023/07/12 17:30:48;;;;;;;3.72;3.35;;;26.70;89.70;;;27.72;44.79;97560.94;10440753;28;20267;-66
2023/07/12 17:35:52;;;;;;;3.80;3.40;;;26.60;89.80;;;27.56;45.30;97562.94;10436388;28;20303;-69
2023/07/12 17:40:56;;;;;;;3.72;2.92;;;26.50;90.10;;;27.49;45.63;97574.41;10426614;28;20239;-67
2023/07/12 17:46:00;;;;;;;3.38;3.00;;;26.50;89.90;;;27.44;45.11;97591.13;10430167;28;20315;-67
2023/07/12 17:51:13;;;;;;;4.05;2.85;;;26.40;89.40;;;27.33;44.41;97584.28;10428775;28;20224;-66
2023/07/12 17:56:19;;;;;;;2.83;2.50;;;26.40;87.90;;;27.44;44.67;97589.38;10422965;28;20225;-68
2023/07/12 18:01:26;;;;;;;3.28;2.53;;;26.40;88.40;;;27.37;42.45;97588.59;10426825;28;20318;-67
2023/07/12 18:06:33;;;;;;;3.42;2.05;;;26.40;85.00;;;27.09;44.53;97584.59;10428281;28;20233;-67
2023/07/12 18:11:40;;;;;;;3.45;2.50;;;26.10;88.00;;;26.88;44.92;97580.50;10422644;28;20225;-67
2023/07/12 18:16:44;;;;;;;4.05;2.67;;;25.90;87.30;;;26.78;44.30;97561.34;10425888;28;20752;-67
2023/07/12 18:21:48;;;;;;;3.58;2.55;;;25.80;87.20;;;26.73;44.68;97556.19;10422775;28;20230;-67
2023/07/12 18:26:53;;;;;;;2.67;2.47;;;25.70;88.90;;;26.51;46.06;97579.16;10420994;28;20307;-67
2023/07/12 18:31:56;;;;;;;3.15;2.63;;;25.50;89.80;;;26.39;45.87;97604.59;10428717;28;20232;-67
2023/07/12 18:36:59;;;;;;;3.50;2.22;;;25.40;89.90;;;26.29;46.72;97602.06;10429395;28;20228;-68
2023/07/12 18:42:16;;;;;;;2.90;2.47;;;25.30;90.50;;;26.18;47.23;97603.03;10436155;28;20621;-68
2023/07/12 18:47:19;;;;;;;3.28;2.50;;;25.20;90.70;;;26.15;48.12;97597.81;10425796;28;20220;-68
2023/07/12 18:52:25;;;;;;;3.65;2.58;;;25.10;91.30;;;25.89;47.26;97595.44;10424903;28;20820;-68
2023/07/12 18:57:29;;;;;;;3.17;2.30;;;25.00;90.90;;;25.96;47.65;97591.91;10426370;28;20229;-68
2023/07/12 19:02:33;;;;;;;3.25;2.80;;;24.90;91.10;;;25.79;49.04;97599.84;10426665;28;20696;-68
2023/07/12 19:07:36;;;;;;;2.80;2.60;;;24.80;91.80;;;25.67;49.71;97606.06;10421025;28;20232;-67
2023/07/12 19:12:41;;;;;;;3.45;2.45;;;24.70;93.00;;;25.61;50.31;97613.94;10421674;28;20244;-66
2023/07/12 19:17:44;;;;;;;2.75;2.28;;;24.60;93.00;;;25.72;48.31;97630.44;10424112;28;20336;-67
2023/07/12 19:22:49;;;;;;;3.67;2.17;;;24.70;92.10;;;25.41;49.49;97655.97;10418675;28;20707;-67
2023/07/12 19:27:53;;;;;;;5.38;2.70;;;24.40;92.30;;;25.28;50.76;97665.59;10427411;28;20726;-66
2023/07/12 19:32:56;;;;;;;3.08;2.70;;;24.30;93.30;;;25.15;51.91;97663.91;10420355;28;20724;-66
2023/07/12 19:38:01;;;;;;;4.45;2.78;;;24.20;95.00;;;25.00;52.35;97661.31;10419221;28;20233;-70
2023/07/12 19:43:06;;;;;;;3.72;2.10;;;24.00;94.40;;;24.84;52.38;97669.22;10416670;28;20217;-68
2023/07/12 19:48:11;;;;;;;2.25;2.05;;;23.80;94.40;;;24.80;51.68;97671.84;10419236;28;20625;-68
2023/07/12 19:53:22;;;;;;;3.10;2.10;;;23.80;94.30;;;24.60;52.07;97675.34;10423283;28;20232;-68
2023/07/12 19:58:31;;;;;;;2.28;2.08;;;23.70;94.10;;;24.42;52.82;97675.38;10416569;28;20720;-67
2023/07/12 20:03:34;;;;;;;2.85;2.00;;;23.50;95.20;;;24.34;53.53;97679.72;10418069;28;20721;-67
2023/07/12 20:08:37;;;;;;;2.22;1.83;;;23.40;95.60;;;24.21;53.38;97676.25;10422637;28;20704;-68
2023/07/12 20:13:43;;;;;;;3.05;1.90;;;23.30;94.90;;;24.07;53.03;97698.88;10431986;28;20615;-68
2023/07/12 20:18:46;;;;;;;2.65;2.00;;;23.10;94.70;;;23.97;51.59;97703.22;10433986;28;20220;-68
2023/07/12 20:23:49;;;;;;;1.80;1.70;;;23.00;93.80;;;23.81;52.30;97692.75;10434135;28;20243;-68
2023/07/12 20:28:54;;;;;;;2.45;1.90;;;22.90;94.30;;;23.70;54.03;97710.13;10433854;28;20233;-68
2023/07/12 20:33:57;;;;;;;2.33;2.08;;;22.80;95.90;;;23.52;54.05;97720.47;10427671;28;20312;-67
2023/07/12 20:39:00;;;;;;;1.98;1.88;;;22.60;94.90;;;23.31;54.41;97722.13;10435862;28;20236;-68
2023/07/12 20:44:05;;;;;;;1.90;1.80;;;22.40;95.80;;;23.27;56.17;97720.38;10435039;28;20237;-68
2023/07/12 20:49:10;;;;;;;1.80;1.70;;;22.30;97.10;;;23.23;59.08;97712.53;10430518;28;20308;-68
2023/07/12 20:54:14;;;;;;;2.13;1.92;;;22.30;99.60;;;23.18;60.89;97715.13;10432384;28;20324;-67
2023/07/12 20:59:19;;;;;;;2.22;1.70;;;22.20;99.90;;;22.98;59.39;97711.53;10437029;28;20236;-68
2023/07/12 21:04:22;;;;;;;4.22;2.17;;;22.00;99.60;;;22.87;58.84;97693.19;10433842;28;20229;-67